Terminal Aerodrome Forecast
Issued by NWS Omaha/Valley, NE

Home | Current Version | Previous Version | Graphics & Text | Print | Product List | Glossary On
Versions: 1 2 3 4 5 6 7 8 9 10 11 12 13 14 15 16 17 18 19 20 21 22 23 24 25 26 27 28 29 30 31 32 33 34 35 36 37
000
FTUS43 KOAX 171010 AAA
TAFOFK
TAF AMD
KOFK 171010Z 1710/1806 12004KT P6SM SCT030
      TEMPO 1711/1714 4SM BR
     FM171500 VRB03KT P6SM SCT025
     FM171900 06005KT P6SM SCT035 SCT250
     FM180200 09004KT P6SM SCT025 BKN120=

USA.gov is the U.S. government's official web portal to all federal, state and local government web resources and services.